createdAt,value
2022-08-29T00:00:01.946Z,7.05
2022-08-29T00:02:52.143Z,7.97
2022-08-29T00:05:25.171Z,7.28
2022-08-29T00:07:58.832Z,6.93
2022-08-29T00:10:27.774Z,6.90
2022-08-29T00:12:57.902Z,7.03
2022-08-29T00:15:28.426Z,7.25
2022-08-29T00:17:55.744Z,6.72
2022-08-29T00:20:34.337Z,7.05
2022-08-29T00:23:06.479Z,7.07
2022-08-29T00:25:34.337Z,7.30
2022-08-29T00:28:02.277Z,7.07
2022-08-29T00:30:30.645Z,7.22
2022-08-29T00:33:00.825Z,7.40
2022-08-29T00:35:37.291Z,6.97
2022-08-29T00:38:06.818Z,7.25
2022-08-29T00:40:38.906Z,7.40
2022-08-29T00:43:06.608Z,7.30
2022-08-29T00:45:34.667Z,7.20
2022-08-29T00:48:15.346Z,6.47
2022-08-29T00:50:50.513Z,7.03
2022-08-29T00:53:23.194Z,7.47
2022-08-29T00:55:51.318Z,7.53
2022-08-29T00:58:28.332Z,6.78
2022-08-29T01:00:58.470Z,7.18
2022-08-29T01:03:27.067Z,7.63
2022-08-29T01:05:54.685Z,6.97
2022-08-29T01:08:21.888Z,7.38
2022-08-29T01:11:07.321Z,6.93
2022-08-29T01:13:41.906Z,6.97
2022-08-29T01:16:11.100Z,7.40
2022-08-29T01:18:41.062Z,6.57
2022-08-29T01:21:13.606Z,7.80
2022-08-29T01:24:10.419Z,6.95
2022-08-29T01:26:37.532Z,7.13
2022-08-29T01:29:05.063Z,7.50
2022-08-29T01:31:56.678Z,7.47
2022-08-29T01:34:28.790Z,6.97
2022-08-29T01:37:01.357Z,7.10
2022-08-29T01:39:34.031Z,7.13
2022-08-29T01:42:05.419Z,6.72
2022-08-29T01:44:33.650Z,6.32
2022-08-29T01:47:03.322Z,6.50
2022-08-29T01:49:33.618Z,6.93
2022-08-29T01:52:02.125Z,7.00
2022-08-29T01:54:30.080Z,6.90
2022-08-29T01:56:57.381Z,6.82
2022-08-29T01:59:27.920Z,6.25
2022-08-29T02:02:40.364Z,7.32
2022-08-29T02:05:08.935Z,6.13
2022-08-29T02:07:35.925Z,6.97
2022-08-29T02:10:03.774Z,6.38
2022-08-29T02:12:31.698Z,6.70
2022-08-29T02:14:59.918Z,6.45
2022-08-29T02:17:28.105Z,6.38
2022-08-29T02:19:55.214Z,5.95
2022-08-29T02:22:24.916Z,6.68
2022-08-29T02:24:51.883Z,6.63
2022-08-29T02:27:19.028Z,6.60
2022-08-29T02:29:46.199Z,6.15
2022-08-29T02:32:14.869Z,6.95
2022-08-29T02:34:44.687Z,6.35
2022-08-29T02:37:17.686Z,6.30
2022-08-29T02:39:47.150Z,5.78
2022-08-29T02:42:14.202Z,6.68
2022-08-29T02:44:41.153Z,6.57
2022-08-29T02:47:09.386Z,6.55
2022-08-29T02:49:36.531Z,6.60
2022-08-29T02:52:06.721Z,6.40
2022-08-29T02:54:34.833Z,6.97
2022-08-29T02:57:03.004Z,5.93
2022-08-29T02:59:29.951Z,6.25
2022-08-29T03:01:57.171Z,6.43
2022-08-29T03:04:24.153Z,6.13
2022-08-29T03:06:51.118Z,6.20
2022-08-29T03:09:18.183Z,6.03
2022-08-29T03:11:47.627Z,5.85
2022-08-29T03:14:19.132Z,5.65
2022-08-29T03:16:46.439Z,6.07
2022-08-29T03:19:13.391Z,5.88
2022-08-29T03:21:41.481Z,5.65
2022-08-29T03:24:08.734Z,6.88
2022-08-29T03:26:40.150Z,6.03
2022-08-29T03:29:07.190Z,6.30
2022-08-29T03:31:35.767Z,6.57
2022-08-29T03:34:02.878Z,5.88
2022-08-29T03:36:29.785Z,6.18
2022-08-29T03:38:56.948Z,6.03
2022-08-29T03:41:28.910Z,5.78
2022-08-29T03:43:56.478Z,5.85
2022-08-29T03:46:24.273Z,6.20
2022-08-29T03:48:51.279Z,6.03
2022-08-29T03:51:19.441Z,5.85
2022-08-29T03:53:47.044Z,5.95
2022-08-29T03:56:18.924Z,6.18
2022-08-29T03:58:52.676Z,6.40
2022-08-29T04:01:22.610Z,6.40
2022-08-29T04:03:50.804Z,6.68
2022-08-29T04:06:18.167Z,6.80
2022-08-29T04:08:48.905Z,6.22
2022-08-29T04:11:19.717Z,7.07
2022-08-29T04:13:48.644Z,6.80
2022-08-29T04:16:19.856Z,6.05
2022-08-29T04:18:52.933Z,6.22
2022-08-29T04:21:19.980Z,6.82
2022-08-29T04:23:48.324Z,6.40
2022-08-29T04:29:06.829Z,6.30
2022-08-29T04:31:34.883Z,6.18
2022-08-29T04:34:02.840Z,6.30
2022-08-29T04:36:29.789Z,6.32
2022-08-29T04:38:57.926Z,5.57
2022-08-29T04:41:25.017Z,5.65
2022-08-29T04:43:51.985Z,6.20
2022-08-29T04:46:24.690Z,5.13
2022-08-29T04:48:53.274Z,6.15
2022-08-29T04:51:21.374Z,5.68
2022-08-29T04:53:49.971Z,5.05
2022-08-29T04:56:17.009Z,5.60
2022-08-29T04:58:47.659Z,5.40
2022-08-29T05:01:17.755Z,5.32
2022-08-29T05:03:52.055Z,5.03
2022-08-29T05:06:22.501Z,5.35
2022-08-29T05:08:58.769Z,5.25
2022-08-29T05:11:30.199Z,5.30
2022-08-29T05:13:58.815Z,5.90
2022-08-29T05:16:26.275Z,5.75
2022-08-29T05:18:54.146Z,5.47
2022-08-29T05:21:34.952Z,5.68
2022-08-29T05:24:05.618Z,5.57
2022-08-29T05:26:43.765Z,4.97
2022-08-29T05:29:12.411Z,4.90
2022-08-29T05:31:42.037Z,4.63
2022-08-29T05:34:32.261Z,4.68
2022-08-29T05:37:00.487Z,4.63
2022-08-29T05:39:27.644Z,4.75
2022-08-29T05:41:56.100Z,4.82
2022-08-29T05:44:23.392Z,5.03
2022-08-29T05:46:50.801Z,4.47
2022-08-29T05:49:22.680Z,4.70
2022-08-29T05:51:53.519Z,4.88
2022-08-29T05:54:20.954Z,4.32
2022-08-29T05:56:50.249Z,4.97
2022-08-29T05:59:19.524Z,4.20
2022-08-29T06:01:47.360Z,4.13
2022-08-29T06:04:14.623Z,4.47
2022-08-29T06:06:42.174Z,4.30
2022-08-29T06:09:11.352Z,4.55
2022-08-29T06:11:40.726Z,4.72
2022-08-29T06:14:07.985Z,4.80
2022-08-29T06:16:35.236Z,5.20
2022-08-29T06:19:02.870Z,4.57
2022-08-29T06:21:31.194Z,4.25
2022-08-29T06:23:58.354Z,4.80
2022-08-29T06:26:27.753Z,4.45
2022-08-29T06:28:55.038Z,4.38
2022-08-29T06:31:28.151Z,4.65
2022-08-29T06:36:29.682Z,4.15
2022-08-29T06:39:02.131Z,4.75
2022-08-29T06:41:29.752Z,4.82
2022-08-29T06:44:00.360Z,4.70
2022-08-29T06:46:33.658Z,4.60
2022-08-29T06:49:04.320Z,4.47
2022-08-29T06:51:33.357Z,4.82
2022-08-29T06:54:02.218Z,4.88
2022-08-29T06:56:32.247Z,4.85
2022-08-29T06:58:59.669Z,5.20
2022-08-29T07:01:27.071Z,4.80
2022-08-29T07:03:57.082Z,4.75
2022-08-29T07:06:24.871Z,4.72
2022-08-29T07:08:55.774Z,4.63
2022-08-29T07:11:27.883Z,4.57
2022-08-29T07:13:57.966Z,4.55
2022-08-29T07:16:27.193Z,4.50
2022-08-29T07:18:55.159Z,3.80
2022-08-29T07:21:24.741Z,3.88
2022-08-29T07:23:54.522Z,3.67
2022-08-29T07:26:27.065Z,3.35
2022-08-29T07:29:03.242Z,3.90
2022-08-29T07:31:31.475Z,3.22
2022-08-29T07:34:02.672Z,3.95
2022-08-29T07:36:31.492Z,3.75
2022-08-29T07:38:58.613Z,3.95
2022-08-29T07:41:26.109Z,3.78
2022-08-29T07:43:53.085Z,3.45
2022-08-29T07:46:21.162Z,3.35
2022-08-29T07:48:48.730Z,3.33
2022-08-29T07:51:19.305Z,3.38
2022-08-29T07:53:46.964Z,3.03
2022-08-29T07:56:40.149Z,3.28
2022-08-29T07:59:07.959Z,3.08
2022-08-29T08:01:36.119Z,3.70
2022-08-29T08:04:04.015Z,3.20
2022-08-29T08:06:31.984Z,3.25
2022-08-29T08:09:01.962Z,3.08
2022-08-29T08:11:29.146Z,3.40
2022-08-29T08:13:57.721Z,2.80
2022-08-29T08:16:27.582Z,3.65
2022-08-29T08:18:56.266Z,2.78
2022-08-29T08:21:25.317Z,3.10
2022-08-29T08:23:53.395Z,2.95
2022-08-29T08:26:21.097Z,3.45
2022-08-29T08:28:51.182Z,2.97
2022-08-29T08:31:19.151Z,3.17
2022-08-29T08:33:47.339Z,3.10
2022-08-29T08:36:32.384Z,3.17
2022-08-29T08:39:00.182Z,2.90
2022-08-29T08:41:27.611Z,3.58
2022-08-29T08:44:04.382Z,2.78
2022-08-29T08:46:44.732Z,3.28
2022-08-29T08:49:21.931Z,3.33
2022-08-29T08:52:01.919Z,3.30
2022-08-29T08:54:34.599Z,3.20
2022-08-29T08:57:11.300Z,2.47
2022-08-29T08:59:44.084Z,2.75
2022-08-29T09:02:25.044Z,2.67
2022-08-29T09:05:20.201Z,2.80
2022-08-29T09:08:12.528Z,2.78
2022-08-29T09:11:03.638Z,2.80
2022-08-29T09:14:03.715Z,3.38
2022-08-29T09:16:36.210Z,2.65
2022-08-29T09:19:09.572Z,3.03
2022-08-29T09:21:48.728Z,3.03
2022-08-29T09:24:26.306Z,3.80
2022-08-29T09:26:53.716Z,3.28
2022-08-29T09:29:28.802Z,3.00
2022-08-29T09:32:10.713Z,2.80
2022-08-29T09:35:08.484Z,2.92
2022-08-29T09:37:32.880Z,3.13
2022-08-29T09:40:16.580Z,3.13
2022-08-29T09:43:09.213Z,3.72
2022-08-29T09:45:36.811Z,2.58
2022-08-29T09:48:17.697Z,2.97
2022-08-29T09:50:45.478Z,2.92
2022-08-29T09:53:24.742Z,3.10
2022-08-29T09:55:53.795Z,2.58
2022-08-29T09:58:24.382Z,3.20
2022-08-29T10:01:00.659Z,2.60
2022-08-29T10:03:33.021Z,2.80
2022-08-29T10:06:15.557Z,2.95
2022-08-29T10:08:57.207Z,2.90
2022-08-29T10:11:31.062Z,3.15
2022-08-29T10:14:09.783Z,2.60
2022-08-29T10:16:51.996Z,2.90
2022-08-29T10:19:26.061Z,2.75
2022-08-29T10:22:29.369Z,2.53
2022-08-29T10:25:09.025Z,3.00
2022-08-29T10:27:55.879Z,2.80
2022-08-29T10:30:32.575Z,2.90
2022-08-29T10:33:05.854Z,2.45
2022-08-29T10:35:55.555Z,2.50
2022-08-29T10:38:46.792Z,2.85
2022-08-29T10:41:32.420Z,2.72
2022-08-29T10:46:54.342Z,3.00
2022-08-29T10:49:44.869Z,2.30
2022-08-29T10:52:33.502Z,2.38
2022-08-29T10:55:21.156Z,2.15
2022-08-29T10:58:13.043Z,2.05
2022-08-29T11:00:49.565Z,2.47
2022-08-29T11:03:40.701Z,2.13
2022-08-29T11:06:30.529Z,2.58
2022-08-29T11:09:41.823Z,2.50
2022-08-29T11:12:34.463Z,2.50
2022-08-29T11:15:20.807Z,2.10
2022-08-29T11:17:58.688Z,2.33
2022-08-29T11:20:34.154Z,2.75
2022-08-29T11:23:18.725Z,2.17
2022-08-29T11:25:47.391Z,2.50
2022-08-29T11:31:43.763Z,2.33
2022-08-29T11:34:32.112Z,2.10
2022-08-29T11:37:34.205Z,2.55
2022-08-29T11:40:12.194Z,2.30
2022-08-29T11:42:51.217Z,2.42
2022-08-29T11:45:37.494Z,2.30
2022-08-29T11:48:34.049Z,2.60
2022-08-29T11:51:38.534Z,2.22
2022-08-29T11:54:25.209Z,2.20
2022-08-29T11:57:12.668Z,1.90
2022-08-29T11:59:48.767Z,2.85
2022-08-29T12:02:31.177Z,2.00
2022-08-29T12:05:07.788Z,2.40
2022-08-29T12:07:42.703Z,2.22
2022-08-29T12:10:25.145Z,2.25
2022-08-29T12:13:00.768Z,2.33
2022-08-29T12:15:28.448Z,2.35
2022-08-29T12:18:22.867Z,2.40
2022-08-29T12:20:55.959Z,2.10
2022-08-29T12:23:35.458Z,2.10
2022-08-29T12:26:25.351Z,1.95
2022-08-29T12:29:01.928Z,2.20
2022-08-29T12:32:02.234Z,2.20
2022-08-29T12:34:52.583Z,2.00
2022-08-29T12:37:24.069Z,1.83
2022-08-29T12:39:57.268Z,2.17
2022-08-29T12:42:46.667Z,2.00
2022-08-29T12:45:19.470Z,2.20
2022-08-29T12:48:08.122Z,2.03
2022-08-29T12:50:45.956Z,1.90
2022-08-29T12:53:30.213Z,2.10
2022-08-29T12:56:00.428Z,2.20
2022-08-29T12:59:05.559Z,2.20
2022-08-29T13:01:40.838Z,2.30
2022-08-29T13:04:11.430Z,1.80
2022-08-29T13:06:51.683Z,2.08
2022-08-29T13:09:32.962Z,1.90
2022-08-29T13:12:23.658Z,2.35
2022-08-29T13:15:08.213Z,3.47
2022-08-29T13:17:40.584Z,2.83
2022-08-29T13:20:38.817Z,2.30
2022-08-29T13:23:06.020Z,2.47
2022-08-29T13:25:42.623Z,2.20
2022-08-29T13:28:16.029Z,2.20
2022-08-29T13:31:02.144Z,2.10
2022-08-29T13:33:35.248Z,2.35
2022-08-29T13:36:44.333Z,2.28
2022-08-29T13:39:26.548Z,2.33
2022-08-29T13:42:03.159Z,2.40
2022-08-29T13:44:58.852Z,2.40
2022-08-29T13:47:30.600Z,2.50
2022-08-29T13:50:04.693Z,2.10
2022-08-29T13:52:34.486Z,2.70
2022-08-29T13:55:02.651Z,2.78
2022-08-29T13:57:34.861Z,2.40
2022-08-29T14:00:07.623Z,2.10
2022-08-29T14:02:35.478Z,2.17
2022-08-29T14:05:02.599Z,2.17
2022-08-29T14:07:31.662Z,1.95
2022-08-29T14:09:59.411Z,2.25
2022-08-29T14:12:33.850Z,1.90
2022-08-29T14:15:09.696Z,1.92
2022-08-29T14:17:41.901Z,1.83
2022-08-29T14:20:10.518Z,1.88
2022-08-29T14:22:37.751Z,2.00
2022-08-29T14:25:06.822Z,2.33
2022-08-29T14:27:34.627Z,1.80
2022-08-29T14:30:02.034Z,2.47
2022-08-29T14:32:29.867Z,2.30
2022-08-29T14:34:57.300Z,1.63
2022-08-29T14:37:24.373Z,2.30
2022-08-29T14:39:52.105Z,1.95
2022-08-29T14:42:20.341Z,1.83
2022-08-29T14:44:47.791Z,1.95
2022-08-29T14:47:14.967Z,1.67
2022-08-29T14:49:42.684Z,2.20
2022-08-29T14:52:15.153Z,2.28
2022-08-29T14:54:43.396Z,2.10
2022-08-29T14:57:12.437Z,2.13
2022-08-29T14:59:39.996Z,1.92
2022-08-29T15:02:08.542Z,3.40
2022-08-29T15:04:38.405Z,4.40
2022-08-29T15:07:11.937Z,2.13
2022-08-29T15:09:42.001Z,2.67
2022-08-29T15:12:11.939Z,2.25
2022-08-29T15:14:39.507Z,2.13
2022-08-29T15:17:08.005Z,2.03
2022-08-29T15:20:18.173Z,2.38
2022-08-29T15:22:25.337Z,2.17
2022-08-29T15:24:53.351Z,2.20
2022-08-29T15:27:27.297Z,2.20
2022-08-29T15:29:57.685Z,2.72
2022-08-29T15:32:25.542Z,2.10
2022-08-29T15:34:53.808Z,2.33
2022-08-29T15:37:22.417Z,2.47
2022-08-29T15:39:54.602Z,2.53
2022-08-29T15:42:30.262Z,2.30
2022-08-29T15:45:00.974Z,2.33
2022-08-29T15:47:33.570Z,2.17
2022-08-29T15:50:02.323Z,2.20
2022-08-29T15:52:31.176Z,2.03
2022-08-29T15:54:58.833Z,2.15
2022-08-29T15:57:26.765Z,2.05
2022-08-29T15:59:58.051Z,2.22
2022-08-29T16:02:27.961Z,2.28
2022-08-29T16:04:57.325Z,2.33
2022-08-29T16:07:29.120Z,2.03
2022-08-29T16:10:01.068Z,2.08
2022-08-29T16:12:31.036Z,2.30
2022-08-29T16:15:00.447Z,2.33
2022-08-29T16:17:31.244Z,2.42
2022-08-29T16:20:12.079Z,2.30
2022-08-29T16:22:41.181Z,2.20
2022-08-29T16:25:09.984Z,1.75
2022-08-29T16:27:37.502Z,2.30
2022-08-29T16:30:09.954Z,2.42
2022-08-29T16:32:38.848Z,2.35
2022-08-29T16:35:07.054Z,2.60
2022-08-29T16:37:34.290Z,2.92
2022-08-29T16:40:03.880Z,2.55
2022-08-29T16:42:34.202Z,2.80
2022-08-29T16:45:06.167Z,2.78
2022-08-29T16:47:34.807Z,2.08
2022-08-29T16:50:06.555Z,2.38
2022-08-29T16:52:33.795Z,2.28
2022-08-29T16:55:01.185Z,2.70
2022-08-29T16:57:28.308Z,2.30
2022-08-29T16:59:55.691Z,2.50
2022-08-29T17:02:23.365Z,2.33
2022-08-29T17:04:51.440Z,2.20
2022-08-29T17:07:18.544Z,2.28
2022-08-29T17:09:45.819Z,2.60
2022-08-29T17:12:13.415Z,2.22
2022-08-29T17:14:41.081Z,2.33
2022-08-29T17:17:08.338Z,2.30
2022-08-29T17:19:38.739Z,2.60
2022-08-29T17:22:10.323Z,2.70
2022-08-29T17:24:37.770Z,2.38
2022-08-29T17:27:05.475Z,2.00
2022-08-29T17:29:35.157Z,2.50
2022-08-29T17:32:10.087Z,2.38
2022-08-29T17:34:39.385Z,2.60
2022-08-29T17:37:08.686Z,2.65
2022-08-29T17:39:41.866Z,2.50
2022-08-29T17:42:09.552Z,2.72
2022-08-29T17:44:36.930Z,2.55
2022-08-29T17:47:04.333Z,2.30
2022-08-29T17:49:36.885Z,2.60
2022-08-29T17:52:04.021Z,2.58
2022-08-29T17:54:32.290Z,2.40
2022-08-29T17:57:02.304Z,2.50
2022-08-29T17:59:32.921Z,3.15
2022-08-29T18:02:05.229Z,3.45
2022-08-29T18:04:32.667Z,2.70
2022-08-29T18:06:59.724Z,2.42
2022-08-29T18:09:27.432Z,3.22
2022-08-29T18:11:58.292Z,2.92
2022-08-29T18:14:27.276Z,2.92
2022-08-29T18:16:55.368Z,2.60
2022-08-29T18:19:27.098Z,2.80
2022-08-29T18:21:54.759Z,2.80
2022-08-29T18:24:24.536Z,2.65
2022-08-29T18:26:54.072Z,3.25
2022-08-29T18:29:21.279Z,2.63
2022-08-29T18:31:49.177Z,2.58
2022-08-29T18:34:17.608Z,2.80
2022-08-29T18:36:46.754Z,2.72
2022-08-29T18:39:15.956Z,2.53
2022-08-29T18:41:45.814Z,2.70
2022-08-29T18:44:15.061Z,3.00
2022-08-29T18:46:47.906Z,2.85
2022-08-29T18:49:19.797Z,3.03
2022-08-29T18:51:47.319Z,3.00
2022-08-29T18:54:18.783Z,2.92
2022-08-29T18:56:46.902Z,3.10
2022-08-29T18:59:14.508Z,2.78
2022-08-29T19:01:44.773Z,3.25
2022-08-29T19:04:11.990Z,3.13
2022-08-29T19:06:39.370Z,2.83
2022-08-29T19:09:06.505Z,3.47
2022-08-29T19:11:33.611Z,3.15
2022-08-29T19:14:00.824Z,3.33
2022-08-29T19:16:28.446Z,3.30
2022-08-29T19:18:55.808Z,3.70
2022-08-29T19:21:24.162Z,3.10
2022-08-29T19:23:53.411Z,3.17
2022-08-29T19:26:28.942Z,3.45
2022-08-29T19:28:59.092Z,3.80
2022-08-29T19:31:27.946Z,3.50
2022-08-29T19:33:55.133Z,3.90
2022-08-29T19:36:23.603Z,4.10
2022-08-29T19:38:51.039Z,3.47
2022-08-29T19:41:18.720Z,3.75
2022-08-29T19:43:50.573Z,4.47
2022-08-29T19:46:22.002Z,4.10
2022-08-29T19:48:51.190Z,4.50
2022-08-29T19:51:21.154Z,4.32
2022-08-29T19:53:48.728Z,4.28
2022-08-29T19:56:17.690Z,4.25
2022-08-29T19:58:44.989Z,5.40
2022-08-29T20:01:12.046Z,4.90
2022-08-29T20:03:44.909Z,4.88
2022-08-29T20:06:14.856Z,4.40
2022-08-29T20:08:48.420Z,5.00
2022-08-29T20:11:22.126Z,4.93
2022-08-29T20:13:51.446Z,4.68
2022-08-29T20:16:24.193Z,5.00
2022-08-29T20:18:53.024Z,5.05
2022-08-29T20:21:23.517Z,5.10
2022-08-29T20:23:57.581Z,5.25
2022-08-29T20:26:28.472Z,4.78
2022-08-29T20:28:55.983Z,5.40
2022-08-29T20:31:23.170Z,5.18
2022-08-29T20:33:53.560Z,5.22
2022-08-29T20:36:41.596Z,4.50
2022-08-29T20:39:14.253Z,5.18
2022-08-29T20:41:42.101Z,5.05
2022-08-29T20:44:10.248Z,4.55
2022-08-29T20:46:44.630Z,5.30
2022-08-29T20:49:17.344Z,4.80
2022-08-29T20:51:44.608Z,5.25
2022-08-29T20:54:14.569Z,5.10
2022-08-29T20:56:42.517Z,5.07
2022-08-29T20:59:10.658Z,4.32
2022-08-29T21:01:38.410Z,4.55
2022-08-29T21:04:25.617Z,5.07
2022-08-29T21:06:58.940Z,5.32
2022-08-29T21:09:27.081Z,5.07
2022-08-29T21:11:55.073Z,6.00
2022-08-29T21:14:22.992Z,5.22
2022-08-29T21:16:52.256Z,5.50
2022-08-29T21:19:19.720Z,4.57
2022-08-29T21:21:47.186Z,5.15
2022-08-29T21:24:15.837Z,5.10
2022-08-29T21:26:45.480Z,6.20
2022-08-29T21:29:12.546Z,5.07
2022-08-29T21:31:42.155Z,5.45
2022-08-29T21:34:13.045Z,5.32
2022-08-29T21:36:45.479Z,5.28
2022-08-29T21:39:13.651Z,5.30
2022-08-29T21:41:47.222Z,5.53
2022-08-29T21:44:15.352Z,5.30
2022-08-29T21:46:44.887Z,5.43
2022-08-29T21:49:17.123Z,5.25
2022-08-29T21:51:45.585Z,5.05
2022-08-29T21:54:17.137Z,5.05
2022-08-29T21:56:45.839Z,5.88
2022-08-29T21:59:14.747Z,5.97
2022-08-29T22:01:43.889Z,5.75
2022-08-29T22:04:19.186Z,5.90
2022-08-29T22:06:56.854Z,5.30
2022-08-29T22:09:25.703Z,5.60
2022-08-29T22:11:56.321Z,4.97
2022-08-29T22:14:43.605Z,4.35
2022-08-29T22:17:11.311Z,5.20
2022-08-29T22:19:39.037Z,5.30
2022-08-29T22:22:06.631Z,4.95
2022-08-29T22:24:37.668Z,5.03
2022-08-29T22:27:05.391Z,5.00
2022-08-29T22:29:33.611Z,4.95
2022-08-29T22:32:01.032Z,4.60
2022-08-29T22:34:28.333Z,5.38
2022-08-29T22:36:58.993Z,5.10
2022-08-29T22:39:26.476Z,4.80
2022-08-29T22:41:55.784Z,5.30
2022-08-29T22:47:10.529Z,5.18
2022-08-29T22:49:38.748Z,4.97
2022-08-29T22:52:11.622Z,5.03
2022-08-29T22:54:42.273Z,5.45
2022-08-29T22:57:15.505Z,5.82
2022-08-29T22:59:43.946Z,5.72
2022-08-29T23:02:12.492Z,6.00
2022-08-29T23:04:40.417Z,6.18
2022-08-29T23:07:11.853Z,5.82
2022-08-29T23:09:41.941Z,5.40
2022-08-29T23:12:12.570Z,5.65
2022-08-29T23:14:42.265Z,6.03
2022-08-29T23:17:10.286Z,5.72
2022-08-29T23:19:41.430Z,5.70
2022-08-29T23:22:13.422Z,6.25
2022-08-29T23:24:53.889Z,5.60
2022-08-29T23:27:29.342Z,5.88
2022-08-29T23:29:58.873Z,5.82
2022-08-29T23:32:27.793Z,5.82
2022-08-29T23:34:55.974Z,5.65
2022-08-29T23:37:24.354Z,6.03
2022-08-29T23:39:56.186Z,5.50
2022-08-29T23:42:23.245Z,5.53
2022-08-29T23:44:50.893Z,5.82
2022-08-29T23:47:19.126Z,5.55
2022-08-29T23:49:49.155Z,5.38
2022-08-29T23:52:17.520Z,4.95
2022-08-29T23:54:44.993Z,5.25
2022-08-29T23:57:12.660Z,5.32
2022-08-29T23:59:59.749Z,5.93
